Time;durP1;ratioP1;P1;durP2;ratioP2;P2;SDS_P1;SDS_P2;PMS_P1;PMS_P2;Temp;Humidity;BMP_temperature;BMP_pressure;BME280_temperature;BME280_humidity;BME280_pressure;Samples;Min_cycle;Max_cycle;Signal;HPM_P1;HPM_P2
2023/06/15 00:09:44;;;;;;;9.8;4.9;;;;;;;;;;;;;
2023/06/15 00:20:44;;;;;;;9.3;5.8;;;;;;;;;;;;;
2023/06/15 00:30:44;;;;;;;9.3;5.8;;;;;;;;;;;;;
2023/06/15 00:40:45;;;;;;;9.3;5.8;;;;;;;;;;;;;
2023/06/15 00:50:44;;;;;;;8.3;5.5;;;;;;;;;;;;;
2023/06/15 01:01:44;;;;;;;8.3;5.5;;;;;;;;;;;;;
2023/06/15 01:11:46;;;;;;;;;;;;;;;;;;;;;
2023/06/15 01:22:45;;;;;;;9.5;5.5;;;;;;;;;;;;;
2023/06/15 01:33:44;;;;;;;9.5;5.5;;;;;;;;;;;;;
2023/06/15 01:44:44;;;;;;;9.5;5.5;;;;;;;;;;;;;
2023/06/15 01:55:44;;;;;;;8.8;5.7;;;;;;;;;;;;;
2023/06/15 02:06:44;;;;;;;8.8;5.7;;;;;;;;;;;;;
2023/06/15 02:16:44;;;;;;;13.4;8.3;;;;;;;;;;;;;
2023/06/15 02:27:44;;;;;;;13.4;8.3;;;;;;;;;;;;;
2023/06/15 02:37:44;;;;;;;13.4;8.3;;;;;;;;;;;;;
2023/06/15 02:47:47;;;;;;;22.5;15.6;;;;;;;;;;;;;
2023/06/15 02:58:47;;;;;;;22.5;15.6;;;;;;;;;;;;;
2023/06/15 03:08:46;;;;;;;22.5;15.6;;;;;;;;;;;;;
2023/06/15 03:19:47;;;;;;;17.5;10.9;;;;;;;;;;;;;
2023/06/15 03:30:46;;;;;;;17.5;10.9;;;;;;;;;;;;;
2023/06/15 03:40:46;;;;;;;17.5;10.9;;;;;;;;;;;;;
2023/06/15 03:51:46;;;;;;;20.6;11.6;;;;;;;;;;;;;
2023/06/15 04:02:46;;;;;;;20.6;11.6;;;;;;;;;;;;;
2023/06/15 04:13:46;;;;;;;20.6;11.6;;;;;;;;;;;;;
2023/06/15 04:23:46;;;;;;;18.8;13.6;;;;;;;;;;;;;
2023/06/15 04:34:46;;;;;;;18.8;13.6;;;;;;;;;;;;;
2023/06/15 04:45:46;;;;;;;16;13.2;;;;;;;;;;;;;
2023/06/15 04:56:46;;;;;;;16;13.2;;;;;;;;;;;;;
2023/06/15 05:06:46;;;;;;;16;13.2;;;;;;;;;;;;;
2023/06/15 05:16:46;;;;;;;16.5;12.5;;;;;;;;;;;;;
2023/06/15 05:26:46;;;;;;;16.5;12.5;;;;;;;;;;;;;
2023/06/15 05:37:46;;;;;;;16.5;12.5;;;;;;;;;;;;;
2023/06/15 05:47:46;;;;;;;25.1;17.8;;;;;;;;;;;;;
2023/06/15 05:58:46;;;;;;;25.1;17.8;;;;;;;;;;;;;
2023/06/15 06:08:46;;;;;;;25.1;17.8;;;;;;;;;;;;;
2023/06/15 06:19:48;;;;;;;29.2;24.5;;;;;;;;;;;;;
2023/06/15 06:30:46;;;;;;;29.2;24.5;;;;;;;;;;;;;
2023/06/15 06:41:46;;;;;;;29.2;24.5;;;;;;;;;;;;;
2023/06/15 06:51:46;;;;;;;29.7;25.1;;;;;;;;;;;;;
2023/06/15 07:02:46;;;;;;;29.7;25.1;;;;;;;;;;;;;
2023/06/15 07:12:46;;;;;;;29.7;25.1;;;;;;;;;;;;;
2023/06/15 07:23:46;;;;;;;21;17.3;;;;;;;;;;;;;
2023/06/15 07:34:46;;;;;;;21;17.3;;;;;;;;;;;;;
2023/06/15 07:44:46;;;;;;;21;17.3;;;;;;;;;;;;;
2023/06/15 07:54:46;;;;;;;15.8;11.9;;;;;;;;;;;;;
2023/06/15 08:04:46;;;;;;;15.8;11.9;;;;;;;;;;;;;
2023/06/15 08:14:46;;;;;;;15.8;11.9;;;;;;;;;;;;;
2023/06/15 08:24:46;;;;;;;15.7;11.2;;;;;;;;;;;;;
2023/06/15 08:35:46;;;;;;;15.7;11.2;;;;;;;;;;;;;
2023/06/15 08:46:46;;;;;;;17;11.2;;;;;;;;;;;;;
2023/06/15 08:57:46;;;;;;;17;11.2;;;;;;;;;;;;;
2023/06/15 09:08:46;;;;;;;17;11.2;;;;;;;;;;;;;
2023/06/15 09:18:46;;;;;;;14.3;11.5;;;;;;;;;;;;;
2023/06/15 09:28:46;;;;;;;14.3;11.5;;;;;;;;;;;;;
2023/06/15 09:39:46;;;;;;;14.3;11.5;;;;;;;;;;;;;
2023/06/15 09:49:46;;;;;;;14.9;10.5;;;;;;;;;;;;;
2023/06/15 09:59:46;;;;;;;14.9;10.5;;;;;;;;;;;;;
2023/06/15 10:09:46;;;;;;;14.9;10.5;;;;;;;;;;;;;
2023/06/15 10:20:46;;;;;;;11.5;9.5;;;;;;;;;;;;;
2023/06/15 10:30:46;;;;;;;11.5;9.5;;;;;;;;;;;;;
2023/06/15 10:40:46;;;;;;;11.5;9.5;;;;;;;;;;;;;
2023/06/15 10:50:48;;;;;;;12.1;8.1;;;;;;;;;;;;;
2023/06/15 11:01:47;;;;;;;12.1;8.1;;;;;;;;;;;;;
2023/06/15 11:11:46;;;;;;;12.1;8.1;;;;;;;;;;;;;
2023/06/15 11:22:46;;;;;;;10.7;6.6;;;;;;;;;;;;;
2023/06/15 11:33:47;;;;;;;10.7;6.6;;;;;;;;;;;;;
2023/06/15 11:43:47;;;;;;;10.7;6.6;;;;;;;;;;;;;
2023/06/15 11:53:46;;;;;;;12.3;7.9;;;;;;;;;;;;;
2023/06/15 12:04:46;;;;;;;12.3;7.9;;;;;;;;;;;;;
2023/06/15 12:14:46;;;;;;;12.3;7.9;;;;;;;;;;;;;
2023/06/15 12:25:46;;;;;;;8.8;6.4;;;;;;;;;;;;;
2023/06/15 12:35:46;;;;;;;8.8;6.4;;;;;;;;;;;;;
2023/06/15 12:45:46;;;;;;;8.8;6.4;;;;;;;;;;;;;
2023/06/15 12:55:46;;;;;;;8;6;;;;;;;;;;;;;
2023/06/15 13:05:46;;;;;;;8;6;;;;;;;;;;;;;
2023/06/15 13:15:46;;;;;;;8;6;;;;;;;;;;;;;
2023/06/15 13:26:46;;;;;;;7.2;5.7;;;;;;;;;;;;;
2023/06/15 13:36:46;;;;;;;7.2;5.7;;;;;;;;;;;;;
2023/06/15 13:47:46;;;;;;;8.4;6;;;;;;;;;;;;;
2023/06/15 13:58:46;;;;;;;8.4;6;;;;;;;;;;;;;
2023/06/15 14:08:46;;;;;;;8.4;6;;;;;;;;;;;;;
2023/06/15 14:19:46;;;;;;;12.6;6.1;;;;;;;;;;;;;
2023/06/15 14:29:46;;;;;;;12.6;6.1;;;;;;;;;;;;;
2023/06/15 14:39:46;;;;;;;12.6;6.1;;;;;;;;;;;;;
2023/06/15 14:50:46;;;;;;;8.1;5.8;;;;;;;;;;;;;
2023/06/15 15:00:46;;;;;;;8.1;5.8;;;;;;;;;;;;;
2023/06/15 15:10:46;;;;;;;8.1;5.8;;;;;;;;;;;;;
2023/06/15 15:21:46;;;;;;;7.5;5.7;;;;;;;;;;;;;
2023/06/15 15:32:46;;;;;;;7.5;5.7;;;;;;;;;;;;;
2023/06/15 15:43:46;;;;;;;7.5;5.7;;;;;;;;;;;;;
2023/06/15 15:53:46;;;;;;;12.6;6.4;;;;;;;;;;;;;
2023/06/15 16:04:46;;;;;;;12.6;6.4;;;;;;;;;;;;;
2023/06/15 16:14:46;;;;;;;12.6;6.4;;;;;;;;;;;;;
2023/06/15 16:24:47;;;;;;;7.3;4.6;;;;;;;;;;;;;
2023/06/15 16:35:47;;;;;;;7.3;4.6;;;;;;;;;;;;;
2023/06/15 16:45:46;;;;;;;7.3;4.6;;;;;;;;;;;;;
2023/06/15 16:56:46;;;;;;;7.1;4.4;;;;;;;;;;;;;
2023/06/15 17:06:48;;;;;;;7.1;4.4;;;;;;;;;;;;;
2023/06/15 17:17:46;;;;;;;8.4;5.6;;;;;;;;;;;;;
2023/06/15 17:28:46;;;;;;;8.4;5.6;;;;;;;;;;;;;
2023/06/15 17:38:46;;;;;;;8.4;5.6;;;;;;;;;;;;;
2023/06/15 17:48:46;;;;;;;;;;;;;;;;;;;;;
2023/06/15 17:58:47;;;;;;;;;;;;;;;;;;;;;
2023/06/15 18:09:46;;;;;;;;;;;;;;;;;;;;;
2023/06/15 18:19:46;;;;;;;;;;;;;;;;;;;;;
